Time;durP1;ratioP1;P1;durP2;ratioP2;P2;SDS_P1;SDS_P2;PMS_P1;PMS_P2;Temp;Humidity;BMP_temperature;BMP_pressure;BME280_temperature;BME280_humidity;BME280_pressure;Samples;Min_cycle;Max_cycle;Signal;HPM_P1;HPM_P2
2023/08/01 00:00:46;;;;;;;4.05;2.30;;;;;;;;;;5012282;28;20038;-71
2023/08/01 00:03:13;;;;;;;3.97;2.10;;;;;;;;;;5012666;28;20100;-70
2023/08/01 00:05:44;;;;;;;3.80;2.53;;;;;;;;;;5016677;28;20048;-71
2023/08/01 00:08:11;;;;;;;3.95;2.33;;;;;;;;;;5013079;28;20772;-71
2023/08/01 00:10:37;;;;;;;4.28;2.10;;;;;;;;;;5012958;28;20042;-70
2023/08/01 00:13:02;;;;;;;5.22;2.50;;;;;;;;;;5013896;28;21055;-70
2023/08/01 00:15:28;;;;;;;2.80;2.00;;;;;;;;;;5007246;28;20454;-70
2023/08/01 00:17:53;;;;;;;4.93;2.47;;;;;;;;;;5002908;28;20164;-70
2023/08/01 00:20:19;;;;;;;4.15;2.15;;;;;;;;;;5019002;28;20045;-71
2023/08/01 00:22:44;;;;;;;3.90;2.22;;;;;;;;;;5011303;28;20391;-70
2023/08/01 00:25:09;;;;;;;2.75;2.15;;;;;;;;;;5003975;28;20041;-71
2023/08/01 00:27:35;;;;;;;3.78;2.50;;;;;;;;;;5007176;28;20140;-70
2023/08/01 00:30:00;;;;;;;2.70;2.00;;;;;;;;;;5010267;28;20042;-71
2023/08/01 00:32:26;;;;;;;3.97;1.92;;;;;;;;;;5007702;28;20052;-70
2023/08/01 00:34:52;;;;;;;2.30;1.77;;;;;;;;;;5008467;28;20120;-70
2023/08/01 00:37:17;;;;;;;9.00;2.28;;;;;;;;;;5004264;28;20913;-70
2023/08/01 00:39:42;;;;;;;4.22;1.92;;;;;;;;;;5010236;28;20127;-70
2023/08/01 00:42:08;;;;;;;4.15;1.73;;;;;;;;;;5018882;28;20059;-71
2023/08/01 00:44:33;;;;;;;2.17;1.90;;;;;;;;;;5008804;28;20052;-71
2023/08/01 00:46:59;;;;;;;2.67;1.83;;;;;;;;;;5010313;28;20067;-71
2023/08/01 00:49:24;;;;;;;3.47;2.00;;;;;;;;;;5007751;28;20069;-73
2023/08/01 00:51:50;;;;;;;2.53;2.25;;;;;;;;;;5005938;28;20084;-73
2023/08/01 00:54:16;;;;;;;5.90;2.00;;;;;;;;;;5008212;28;20466;-73
2023/08/01 00:56:42;;;;;;;2.72;1.95;;;;;;;;;;4993875;28;20140;-73
2023/08/01 00:59:07;;;;;;;3.28;2.05;;;;;;;;;;5004426;28;20125;-73
2023/08/01 01:01:33;;;;;;;2.05;1.80;;;;;;;;;;5004386;28;20049;-73
2023/08/01 01:03:59;;;;;;;3.55;2.05;;;;;;;;;;4994904;28;20132;-73
2023/08/01 01:06:47;;;;;;;3.13;1.85;;;;;;;;;;5000651;28;20037;-70
2023/08/01 01:09:17;;;;;;;4.38;2.10;;;;;;;;;;5005111;28;20372;-70
2023/08/01 01:11:43;;;;;;;2.10;1.90;;;;;;;;;;5005392;28;20538;-70
2023/08/01 01:14:09;;;;;;;8.90;2.25;;;;;;;;;;5004330;28;20053;-71
2023/08/01 01:16:34;;;;;;;3.05;1.90;;;;;;;;;;5010882;28;20111;-70
2023/08/01 01:18:59;;;;;;;3.13;1.77;;;;;;;;;;5007140;28;20049;-70
2023/08/01 01:21:25;;;;;;;2.55;2.03;;;;;;;;;;5009858;28;20083;-71
2023/08/01 01:23:51;;;;;;;2.78;1.98;;;;;;;;;;5004753;28;20053;-71
2023/08/01 01:26:21;;;;;;;2.28;1.75;;;;;;;;;;5006226;28;20042;-71
2023/08/01 01:28:49;;;;;;;2.15;1.60;;;;;;;;;;5009326;28;20046;-71
2023/08/01 01:31:15;;;;;;;3.28;1.77;;;;;;;;;;4987527;28;21442;-70
2023/08/01 01:33:41;;;;;;;2.50;1.85;;;;;;;;;;5006352;28;20081;-71
2023/08/01 01:36:07;;;;;;;3.30;1.80;;;;;;;;;;5005713;28;20084;-71
2023/08/01 01:38:34;;;;;;;3.00;1.92;;;;;;;;;;5000526;28;20034;-71
2023/08/01 01:40:59;;;;;;;3.45;1.80;;;;;;;;;;4998746;28;20034;-71
2023/08/01 01:43:25;;;;;;;2.85;1.73;;;;;;;;;;5001509;28;20053;-71
2023/08/01 01:45:50;;;;;;;4.65;2.08;;;;;;;;;;5008778;28;20042;-71
2023/08/01 01:48:16;;;;;;;2.95;2.30;;;;;;;;;;5006965;28;20062;-71
2023/08/01 01:50:42;;;;;;;3.80;2.30;;;;;;;;;;5008800;28;20054;-71
2023/08/01 01:53:07;;;;;;;2.55;1.90;;;;;;;;;;5008993;28;20104;-70
2023/08/01 01:55:33;;;;;;;3.63;2.28;;;;;;;;;;5008544;28;20232;-70
2023/08/01 01:58:00;;;;;;;4.07;2.95;;;;;;;;;;5008241;28;20694;-71
2023/08/01 02:00:26;;;;;;;3.08;2.17;;;;;;;;;;5011743;28;20046;-71
2023/08/01 02:02:51;;;;;;;3.60;1.98;;;;;;;;;;5010098;28;20406;-70
2023/08/01 02:05:16;;;;;;;3.17;1.98;;;;;;;;;;5007126;28;20042;-73
2023/08/01 02:07:42;;;;;;;3.13;1.70;;;;;;;;;;5009697;28;20045;-73
2023/08/01 02:10:08;;;;;;;3.88;2.10;;;;;;;;;;4991193;28;20537;-73
2023/08/01 02:12:35;;;;;;;3.08;1.77;;;;;;;;;;5006285;28;20041;-73
2023/08/01 02:15:01;;;;;;;2.25;1.70;;;;;;;;;;5002461;28;20046;-73
2023/08/01 02:17:26;;;;;;;2.83;1.98;;;;;;;;;;5006283;28;20104;-73
2023/08/01 02:19:52;;;;;;;3.30;2.00;;;;;;;;;;5009176;28;20088;-73
2023/08/01 02:22:17;;;;;;;4.38;2.15;;;;;;;;;;5006543;28;20491;-73
2023/08/01 02:24:43;;;;;;;3.45;2.45;;;;;;;;;;4998997;28;20125;-70
2023/08/01 02:27:08;;;;;;;5.28;2.35;;;;;;;;;;5007411;28;20045;-70
2023/08/01 02:29:34;;;;;;;5.07;2.10;;;;;;;;;;5004876;28;20558;-70
2023/08/01 02:31:59;;;;;;;6.68;2.20;;;;;;;;;;5010253;28;20461;-70
2023/08/01 02:34:24;;;;;;;3.83;2.30;;;;;;;;;;5008464;28;20042;-70
2023/08/01 02:36:50;;;;;;;4.53;2.42;;;;;;;;;;5006225;28;20049;-70
2023/08/01 02:39:15;;;;;;;2.90;2.15;;;;;;;;;;5002698;28;20054;-70
2023/08/01 02:41:41;;;;;;;3.70;2.17;;;;;;;;;;5002706;28;20126;-70
2023/08/01 02:44:06;;;;;;;2.20;2.00;;;;;;;;;;5006123;28;20054;-70
2023/08/01 02:46:31;;;;;;;4.78;2.65;;;;;;;;;;5002844;28;20045;-70
2023/08/01 02:48:58;;;;;;;3.25;2.28;;;;;;;;;;5004686;28;20380;-70
2023/08/01 02:51:23;;;;;;;3.90;2.10;;;;;;;;;;5000832;28;20499;-70
2023/08/01 02:53:49;;;;;;;4.75;2.17;;;;;;;;;;5005113;28;20045;-70
2023/08/01 02:56:14;;;;;;;2.50;2.17;;;;;;;;;;4992869;28;20503;-70
2023/08/01 02:58:39;;;;;;;3.53;2.35;;;;;;;;;;5005676;28;20107;-70
2023/08/01 03:01:11;;;;;;;3.95;2.10;;;;;;;;;;5007653;28;20045;-73
2023/08/01 03:03:37;;;;;;;3.53;2.10;;;;;;;;;;5008210;28;20052;-71
2023/08/01 03:06:03;;;;;;;2.80;2.08;;;;;;;;;;5005517;28;20584;-71
2023/08/01 03:08:28;;;;;;;2.78;2.10;;;;;;;;;;5007854;28;20069;-71
2023/08/01 03:10:55;;;;;;;2.47;1.98;;;;;;;;;;5011626;28;20042;-71
2023/08/01 03:13:21;;;;;;;3.50;2.55;;;;;;;;;;4988992;28;20103;-71
2023/08/01 03:15:46;;;;;;;3.88;2.15;;;;;;;;;;5008787;28;20050;-71
2023/08/01 03:18:12;;;;;;;3.53;2.40;;;;;;;;;;5014644;28;20045;-71
2023/08/01 03:20:37;;;;;;;5.72;2.40;;;;;;;;;;5004988;28;20586;-73
2023/08/01 03:23:03;;;;;;;2.10;1.92;;;;;;;;;;5007578;28;21194;-71
2023/08/01 03:25:29;;;;;;;5.82;2.58;;;;;;;;;;5012605;28;20057;-71
2023/08/01 03:27:55;;;;;;;4.22;2.75;;;;;;;;;;5011710;28;20064;-71
2023/08/01 03:30:21;;;;;;;2.80;2.33;;;;;;;;;;5010140;28;20049;-71
2023/08/01 03:32:47;;;;;;;4.95;2.47;;;;;;;;;;5005342;28;20037;-71
2023/08/01 03:35:13;;;;;;;4.40;2.60;;;;;;;;;;5008196;28;20050;-73
2023/08/01 03:37:42;;;;;;;5.20;2.40;;;;;;;;;;5028819;28;20095;-73
2023/08/01 03:40:10;;;;;;;2.72;2.17;;;;;;;;;;5006858;28;20100;-71
2023/08/01 03:42:36;;;;;;;4.88;2.00;;;;;;;;;;5008859;28;20041;-71
2023/08/01 03:45:03;;;;;;;2.55;2.10;;;;;;;;;;5004575;28;20498;-71
2023/08/01 03:47:29;;;;;;;3.33;1.90;;;;;;;;;;5010618;28;20134;-71
2023/08/01 03:49:55;;;;;;;2.95;2.53;;;;;;;;;;5009094;28;20680;-71
2023/08/01 03:52:20;;;;;;;2.97;2.30;;;;;;;;;;5003761;28;20062;-71
2023/08/01 03:54:45;;;;;;;6.63;3.05;;;;;;;;;;5011249;28;20046;-72
2023/08/01 03:57:11;;;;;;;3.53;2.58;;;;;;;;;;5013663;28;20184;-72
2023/08/01 03:59:36;;;;;;;4.00;2.33;;;;;;;;;;5006659;28;20038;-72
2023/08/01 04:02:03;;;;;;;2.88;2.00;;;;;;;;;;5005266;28;20433;-72
2023/08/01 04:04:30;;;;;;;4.32;2.47;;;;;;;;;;5014493;28;20493;-72
2023/08/01 04:06:56;;;;;;;4.25;2.10;;;;;;;;;;5009943;28;20049;-72
2023/08/01 04:09:21;;;;;;;3.08;2.22;;;;;;;;;;5017530;28;20611;-73
2023/08/01 04:11:47;;;;;;;6.45;2.28;;;;;;;;;;5012285;28;20092;-72
2023/08/01 04:14:12;;;;;;;3.30;2.20;;;;;;;;;;5010118;28;20498;-72
2023/08/01 04:16:38;;;;;;;4.18;2.20;;;;;;;;;;5012117;28;20054;-71
2023/08/01 04:19:03;;;;;;;2.20;2.00;;;;;;;;;;5001539;28;20045;-71
2023/08/01 04:21:28;;;;;;;2.85;2.10;;;;;;;;;;5001575;28;20145;-72
2023/08/01 04:23:54;;;;;;;3.65;2.55;;;;;;;;;;5009834;28;20121;-72
2023/08/01 04:26:19;;;;;;;3.30;2.25;;;;;;;;;;5010145;28;20087;-71
2023/08/01 04:28:46;;;;;;;7.45;2.63;;;;;;;;;;5008870;28;20495;-71
2023/08/01 04:31:12;;;;;;;4.05;2.10;;;;;;;;;;5008287;28;20065;-71
2023/08/01 04:33:37;;;;;;;3.42;2.42;;;;;;;;;;5001201;28;20038;-70
2023/08/01 04:36:03;;;;;;;3.97;2.47;;;;;;;;;;5008917;28;20053;-71
2023/08/01 04:38:28;;;;;;;4.80;2.20;;;;;;;;;;5010979;28;20516;-71
2023/08/01 04:40:54;;;;;;;4.03;2.10;;;;;;;;;;5010134;28;20044;-71
2023/08/01 04:43:19;;;;;;;4.10;2.47;;;;;;;;;;5008748;28;20513;-71
2023/08/01 04:45:45;;;;;;;3.80;2.50;;;;;;;;;;5012036;28;20049;-71
2023/08/01 04:48:10;;;;;;;4.50;2.22;;;;;;;;;;5009386;28;20049;-70
2023/08/01 04:50:36;;;;;;;6.10;2.40;;;;;;;;;;5010675;28;20522;-70
2023/08/01 04:53:01;;;;;;;5.40;2.50;;;;;;;;;;5008302;28;20041;-70
2023/08/01 04:55:27;;;;;;;3.85;2.35;;;;;;;;;;5009129;28;20053;-70
2023/08/01 04:57:53;;;;;;;6.20;2.13;;;;;;;;;;5005633;28;21029;-69
2023/08/01 05:00:18;;;;;;;4.93;2.47;;;;;;;;;;5011494;28;20054;-69
2023/08/01 05:02:43;;;;;;;4.47;2.40;;;;;;;;;;5005835;28;20099;-70
2023/08/01 05:05:09;;;;;;;4.45;2.42;;;;;;;;;;5007150;28;20164;-70
2023/08/01 05:07:34;;;;;;;8.02;2.60;;;;;;;;;;5011343;28;20483;-70
2023/08/01 05:10:00;;;;;;;2.80;2.28;;;;;;;;;;5009351;28;20046;-71
2023/08/01 05:12:25;;;;;;;3.53;2.45;;;;;;;;;;5009527;28;20077;-70
2023/08/01 05:14:51;;;;;;;3.10;2.13;;;;;;;;;;5010269;28;20104;-70
2023/08/01 05:17:16;;;;;;;3.72;2.00;;;;;;;;;;5009172;28;20042;-70
2023/08/01 05:19:41;;;;;;;5.35;2.65;;;;;;;;;;5011511;28;20491;-70
2023/08/01 05:22:07;;;;;;;6.10;2.33;;;;;;;;;;5009458;28;20061;-70
2023/08/01 05:24:32;;;;;;;3.50;2.20;;;;;;;;;;5004630;28;20045;-70
2023/08/01 05:26:58;;;;;;;3.97;2.30;;;;;;;;;;5013368;28;20049;-70
2023/08/01 05:29:23;;;;;;;3.80;2.17;;;;;;;;;;5009357;28;20084;-71
2023/08/01 05:31:49;;;;;;;4.60;2.50;;;;;;;;;;5009535;28;20056;-71
2023/08/01 05:34:14;;;;;;;6.05;2.67;;;;;;;;;;5011064;28;20964;-70
2023/08/01 05:36:39;;;;;;;7.63;3.30;;;;;;;;;;5007556;28;20411;-70
2023/08/01 05:39:05;;;;;;;3.63;2.60;;;;;;;;;;5013140;28;20447;-70
2023/08/01 05:41:30;;;;;;;4.22;2.70;;;;;;;;;;5011566;28;20058;-70
2023/08/01 05:43:56;;;;;;;5.57;2.90;;;;;;;;;;5013279;28;20060;-70
2023/08/01 05:46:22;;;;;;;4.18;2.30;;;;;;;;;;5012860;28;20045;-70
2023/08/01 05:48:47;;;;;;;4.78;2.60;;;;;;;;;;5011469;28;20049;-70
2023/08/01 05:51:12;;;;;;;4.28;2.83;;;;;;;;;;5013536;28;20080;-71
2023/08/01 05:53:38;;;;;;;6.00;3.10;;;;;;;;;;5012842;28;20148;-70
2023/08/01 05:56:04;;;;;;;4.93;3.10;;;;;;;;;;5010257;28;20064;-69
2023/08/01 05:58:30;;;;;;;7.50;2.70;;;;;;;;;;5010477;28;20080;-70
2023/08/01 06:00:56;;;;;;;5.35;2.97;;;;;;;;;;5010974;28;20075;-69
2023/08/01 06:03:22;;;;;;;8.10;3.50;;;;;;;;;;5009078;28;20046;-74
2023/08/01 06:05:48;;;;;;;10.50;3.50;;;;;;;;;;5010955;28;20042;-70
2023/08/01 06:08:15;;;;;;;5.10;3.00;;;;;;;;;;5011585;28;20540;-70
2023/08/01 06:10:41;;;;;;;4.72;3.17;;;;;;;;;;5012476;28;20133;-70
2023/08/01 06:13:06;;;;;;;4.75;3.30;;;;;;;;;;5011962;28;20399;-69
2023/08/01 06:15:32;;;;;;;9.73;3.33;;;;;;;;;;5008795;28;20073;-69
2023/08/01 06:17:57;;;;;;;6.00;3.22;;;;;;;;;;5008653;28;20053;-70
2023/08/01 06:20:23;;;;;;;7.07;3.25;;;;;;;;;;5024292;28;20129;-69
2023/08/01 06:22:48;;;;;;;4.35;2.92;;;;;;;;;;5010677;28;20045;-71
2023/08/01 06:25:14;;;;;;;4.03;2.88;;;;;;;;;;5014053;28;20049;-71
2023/08/01 06:27:39;;;;;;;5.30;3.05;;;;;;;;;;5012648;28;20907;-71
2023/08/01 06:30:05;;;;;;;3.80;2.90;;;;;;;;;;5012215;28;20061;-71
2023/08/01 06:32:31;;;;;;;5.13;3.22;;;;;;;;;;5009684;28;20060;-71
2023/08/01 06:34:56;;;;;;;3.92;2.67;;;;;;;;;;5008292;28;20050;-70
2023/08/01 06:37:22;;;;;;;4.13;2.65;;;;;;;;;;5011265;28;20053;-75
2023/08/01 06:39:47;;;;;;;5.65;3.13;;;;;;;;;;5004943;28;20085;-71
2023/08/01 06:42:13;;;;;;;7.20;2.90;;;;;;;;;;5001791;28;20053;-71
2023/08/01 06:44:38;;;;;;;4.15;3.17;;;;;;;;;;5009010;28;20057;-72
2023/08/01 06:47:04;;;;;;;5.13;2.85;;;;;;;;;;5002788;28;20049;-72
2023/08/01 06:49:29;;;;;;;2.92;2.40;;;;;;;;;;5001440;28;20046;-71
2023/08/01 06:51:55;;;;;;;4.13;2.50;;;;;;;;;;5007459;28;20221;-71
2023/08/01 06:54:20;;;;;;;6.22;2.92;;;;;;;;;;5003805;28;20058;-72
2023/08/01 06:56:48;;;;;;;4.07;2.25;;;;;;;;;;5009240;28;20102;-72
2023/08/01 06:59:14;;;;;;;4.97;2.92;;;;;;;;;;5000990;28;20140;-72
2023/08/01 07:01:43;;;;;;;4.05;2.78;;;;;;;;;;4999773;28;20050;-72
2023/08/01 07:04:12;;;;;;;6.03;3.40;;;;;;;;;;4999437;28;20088;-72
2023/08/01 07:06:37;;;;;;;8.27;2.88;;;;;;;;;;5000418;28;20046;-72
2023/08/01 07:09:03;;;;;;;3.63;2.22;;;;;;;;;;5015373;28;20568;-72
2023/08/01 07:11:28;;;;;;;9.00;2.58;;;;;;;;;;5004770;28;20048;-72
2023/08/01 07:13:54;;;;;;;4.90;2.20;;;;;;;;;;5006385;28;20118;-70
2023/08/01 07:16:19;;;;;;;3.03;2.45;;;;;;;;;;5004174;28;20041;-72
2023/08/01 07:18:44;;;;;;;4.50;2.80;;;;;;;;;;5010023;28;20103;-73
2023/08/01 07:21:10;;;;;;;3.65;2.75;;;;;;;;;;5008455;28;20553;-71
2023/08/01 07:23:36;;;;;;;4.85;3.00;;;;;;;;;;5010182;28;20068;-71
2023/08/01 07:26:01;;;;;;;6.03;3.08;;;;;;;;;;5004353;28;20858;-72
2023/08/01 07:28:27;;;;;;;7.78;3.15;;;;;;;;;;5007831;28;20423;-73
2023/08/01 07:30:59;;;;;;;3.78;3.00;;;;;;;;;;5007880;28;20050;-70
2023/08/01 07:33:25;;;;;;;3.55;2.88;;;;;;;;;;5008494;28;20073;-71
2023/08/01 07:35:54;;;;;;;6.63;3.00;;;;;;;;;;5006041;28;20065;-71
2023/08/01 07:38:19;;;;;;;4.82;3.47;;;;;;;;;;5013650;28;20073;-72
2023/08/01 07:40:44;;;;;;;5.88;3.17;;;;;;;;;;5012717;28;20522;-71
2023/08/01 07:43:10;;;;;;;3.97;2.80;;;;;;;;;;5011449;28;20053;-71
2023/08/01 07:45:36;;;;;;;2.80;2.30;;;;;;;;;;5012612;28;20073;-72
2023/08/01 07:48:02;;;;;;;4.30;2.97;;;;;;;;;;5010916;28;20081;-71
2023/08/01 07:50:28;;;;;;;4.63;2.78;;;;;;;;;;5007372;28;20569;-72
2023/08/01 07:52:53;;;;;;;7.60;3.03;;;;;;;;;;5009328;28;20046;-72
2023/08/01 07:55:20;;;;;;;6.40;2.75;;;;;;;;;;5011309;28;20459;-70
2023/08/01 07:57:46;;;;;;;3.67;2.58;;;;;;;;;;5011310;28;20060;-71
2023/08/01 08:00:12;;;;;;;4.00;2.75;;;;;;;;;;5008232;28;20045;-71
2023/08/01 08:02:44;;;;;;;4.35;2.53;;;;;;;;;;5012493;28;20056;-71
2023/08/01 08:05:10;;;;;;;3.60;2.55;;;;;;;;;;5010261;28;20049;-71
2023/08/01 08:07:38;;;;;;;3.50;2.53;;;;;;;;;;5011685;28;20053;-70
2023/08/01 08:10:05;;;;;;;4.07;3.00;;;;;;;;;;5024096;28;20053;-71
2023/08/01 08:12:31;;;;;;;4.20;2.75;;;;;;;;;;5012993;28;20045;-71
2023/08/01 08:14:57;;;;;;;3.30;2.55;;;;;;;;;;4991855;28;20056;-71
2023/08/01 08:17:23;;;;;;;4.55;3.15;;;;;;;;;;5008275;28;20049;-70
2023/08/01 08:19:48;;;;;;;2.90;2.38;;;;;;;;;;5003247;28;20677;-71
2023/08/01 08:22:13;;;;;;;3.72;2.55;;;;;;;;;;5022650;28;20065;-71
2023/08/01 08:24:39;;;;;;;3.80;2.70;;;;;;;;;;5011066;28;20517;-71
2023/08/01 08:27:05;;;;;;;5.60;2.88;;;;;;;;;;5006943;28;20048;-71
2023/08/01 08:29:32;;;;;;;3.95;2.67;;;;;;;;;;5003586;28;20077;-70
2023/08/01 08:31:57;;;;;;;3.60;2.70;;;;;;;;;;5004579;28;20045;-70
2023/08/01 08:34:23;;;;;;;4.40;2.78;;;;;;;;;;5001565;28;20057;-71
2023/08/01 08:36:50;;;;;;;5.15;2.53;;;;;;;;;;5004924;28;20041;-71
2023/08/01 08:39:18;;;;;;;3.42;2.33;;;;;;;;;;5000528;28;20056;-71
2023/08/01 08:41:51;;;;;;;3.65;2.33;;;;;;;;;;5001530;28;20053;-72
2023/08/01 08:44:21;;;;;;;3.50;2.45;;;;;;;;;;5006218;28;20050;-72
2023/08/01 08:46:52;;;;;;;4.75;2.42;;;;;;;;;;5000203;28;20064;-73
2023/08/01 08:49:22;;;;;;;3.60;2.53;;;;;;;;;;5000294;28;20049;-72
2023/08/01 08:51:48;;;;;;;3.33;2.65;;;;;;;;;;4999212;28;20046;-71
2023/08/01 08:54:16;;;;;;;9.38;2.80;;;;;;;;;;4999629;28;20045;-71
2023/08/01 08:56:41;;;;;;;3.53;2.47;;;;;;;;;;5000922;28;20081;-69
2023/08/01 08:59:10;;;;;;;3.08;2.40;;;;;;;;;;4999633;28;20351;-70
2023/08/01 09:01:36;;;;;;;5.43;2.50;;;;;;;;;;4998586;28;20042;-70
2023/08/01 09:04:02;;;;;;;3.65;2.15;;;;;;;;;;4997170;28;20049;-69
2023/08/01 09:06:33;;;;;;;3.20;2.42;;;;;;;;;;5005027;28;20045;-70
2023/08/01 09:09:04;;;;;;;3.72;2.55;;;;;;;;;;5001368;28;20211;-70
2023/08/01 09:11:43;;;;;;;6.43;2.80;;;;;;;;;;4997922;28;20046;-70
2023/08/01 09:14:09;;;;;;;6.03;2.20;;;;;;;;;;4999541;28;20068;-71
2023/08/01 09:16:35;;;;;;;2.60;2.20;;;;;;;;;;5000314;28;20041;-72
2023/08/01 09:19:01;;;;;;;5.88;2.60;;;;;;;;;;5003048;28;20041;-71
2023/08/01 09:21:26;;;;;;;4.25;2.53;;;;;;;;;;5000294;28;20049;-70
2023/08/01 09:23:52;;;;;;;4.63;2.33;;;;;;;;;;4999209;28;20050;-72
2023/08/01 09:26:19;;;;;;;3.38;2.35;;;;;;;;;;4998785;28;20050;-72
2023/08/01 09:28:55;;;;;;;3.40;2.40;;;;;;;;;;5006194;28;20045;-70
2023/08/01 09:31:27;;;;;;;5.47;2.60;;;;;;;;;;5003626;28;20049;-68
2023/08/01 09:33:53;;;;;;;4.13;2.75;;;;;;;;;;5018467;28;20046;-69
2023/08/01 09:36:22;;;;;;;4.25;2.88;;;;;;;;;;5006104;28;20565;-69
2023/08/01 09:38:48;;;;;;;3.65;2.80;;;;;;;;;;5007109;28;20068;-69
2023/08/01 09:41:20;;;;;;;4.03;2.28;;;;;;;;;;5005161;28;20053;-69
2023/08/01 09:43:47;;;;;;;3.22;2.50;;;;;;;;;;4998288;28;20418;-69
2023/08/01 09:46:13;;;;;;;3.90;2.50;;;;;;;;;;5006207;28;20145;-69
2023/08/01 09:48:39;;;;;;;2.72;2.40;;;;;;;;;;5001047;28;20046;-70
2023/08/01 09:51:09;;;;;;;3.75;2.70;;;;;;;;;;5004796;28;20759;-71
2023/08/01 09:53:36;;;;;;;4.32;2.50;;;;;;;;;;5005247;28;20037;-71
2023/08/01 09:56:02;;;;;;;2.83;2.38;;;;;;;;;;5005218;28;20053;-68
2023/08/01 09:58:34;;;;;;;4.55;2.55;;;;;;;;;;5006404;28;20060;-70
2023/08/01 10:01:00;;;;;;;;;;;;;;;;;;5003012;28;20049;-69
2023/08/01 10:03:28;;;;;;;3.78;2.80;;;;;;;;;;5006056;28;20008;-69
2023/08/01 10:05:55;;;;;;;4.60;2.75;;;;;;;;;;5004010;28;20145;-69
2023/08/01 10:08:22;;;;;;;5.10;2.80;;;;;;;;;;4998696;28;20495;-69
2023/08/01 10:10:48;;;;;;;5.15;3.10;;;;;;;;;;5007767;28;20056;-68
2023/08/01 10:13:15;;;;;;;4.15;3.00;;;;;;;;;;4998703;28;20050;-69
2023/08/01 10:15:41;;;;;;;4.97;2.72;;;;;;;;;;5000664;28;20053;-70
2023/08/01 10:18:09;;;;;;;3.42;2.60;;;;;;;;;;5000040;28;20053;-70
2023/08/01 10:20:37;;;;;;;5.88;2.80;;;;;;;;;;5000282;28;20433;-68
2023/08/01 10:23:03;;;;;;;4.65;2.95;;;;;;;;;;4999934;28;20116;-70
2023/08/01 10:25:30;;;;;;;3.33;2.58;;;;;;;;;;5001242;28;20092;-69
2023/08/01 10:28:02;;;;;;;3.72;3.17;;;;;;;;;;5000549;28;20058;-68
2023/08/01 10:30:29;;;;;;;5.18;2.75;;;;;;;;;;5000505;28;20056;-68
2023/08/01 10:32:56;;;;;;;3.45;2.70;;;;;;;;;;5005783;28;20064;-69
2023/08/01 10:35:32;;;;;;;3.75;2.75;;;;;;;;;;5005232;28;20057;-69
2023/08/01 10:38:04;;;;;;;2.88;2.38;;;;;;;;;;4997837;28;20060;-68
2023/08/01 10:40:34;;;;;;;3.70;2.60;;;;;;;;;;5007298;28;20045;-69
2023/08/01 10:43:00;;;;;;;3.58;2.15;;;;;;;;;;5001686;28;20077;-69
2023/08/01 10:45:27;;;;;;;2.05;1.58;;;;;;;;;;5005760;28;20256;-68
2023/08/01 10:47:52;;;;;;;3.72;2.40;;;;;;;;;;5006556;28;20056;-69
2023/08/01 10:50:18;;;;;;;2.63;2.25;;;;;;;;;;5016457;28;20050;-70
2023/08/01 10:52:44;;;;;;;3.65;2.60;;;;;;;;;;5003495;28;20130;-70
2023/08/01 10:55:10;;;;;;;2.38;1.50;;;;;;;;;;5007580;28;20088;-70
2023/08/01 10:57:38;;;;;;;3.00;2.10;;;;;;;;;;4999739;28;20552;-70
2023/08/01 11:00:10;;;;;;;4.03;2.28;;;;;;;;;;5000020;28;20057;-71
2023/08/01 11:02:36;;;;;;;3.05;2.03;;;;;;;;;;4999888;28;20057;-69
2023/08/01 11:05:04;;;;;;;4.28;2.03;;;;;;;;;;5005412;28;20049;-71
2023/08/01 11:07:30;;;;;;;3.83;2.45;;;;;;;;;;5003255;28;20125;-70
2023/08/01 11:10:13;;;;;;;3.70;2.13;;;;;;;;;;5004266;28;20421;-71
2023/08/01 11:12:43;;;;;;;4.72;2.05;;;;;;;;;;5006144;28;20049;-70
2023/08/01 11:15:11;;;;;;;2.60;1.85;;;;;;;;;;5007229;28;20046;-70
2023/08/01 11:17:38;;;;;;;4.60;2.33;;;;;;;;;;5010142;28;20060;-72
2023/08/01 11:20:09;;;;;;;2.90;1.92;;;;;;;;;;5003440;28;20046;-71
2023/08/01 11:22:35;;;;;;;3.10;1.95;;;;;;;;;;5011436;28;20045;-70
2023/08/01 11:25:01;;;;;;;5.63;2.13;;;;;;;;;;5005115;28;20056;-71
2023/08/01 11:27:27;;;;;;;2.78;2.03;;;;;;;;;;5021953;28;20041;-71
2023/08/01 11:29:53;;;;;;;4.15;2.22;;;;;;;;;;5022275;28;20095;-71
2023/08/01 11:32:23;;;;;;;2.28;1.70;;;;;;;;;;5006743;28;20054;-68
2023/08/01 11:34:48;;;;;;;3.63;1.90;;;;;;;;;;5005296;28;20052;-67
2023/08/01 11:37:15;;;;;;;2.67;1.80;;;;;;;;;;5008231;28;20046;-70
2023/08/01 11:39:41;;;;;;;4.53;2.13;;;;;;;;;;5001812;28;20108;-69
2023/08/01 11:42:06;;;;;;;4.25;2.13;;;;;;;;;;5003362;28;20454;-68
2023/08/01 11:44:32;;;;;;;4.25;1.90;;;;;;;;;;5006101;28;20148;-70
2023/08/01 11:46:57;;;;;;;1.70;1.60;;;;;;;;;;5003355;28;20038;-68
2023/08/01 11:49:23;;;;;;;2.13;1.73;;;;;;;;;;5006035;28;20056;-68
2023/08/01 11:51:49;;;;;;;3.83;1.70;;;;;;;;;;5007828;28;20053;-70
2023/08/01 11:54:17;;;;;;;2.60;1.83;;;;;;;;;;5003307;28;20056;-72
2023/08/01 11:56:42;;;;;;;2.88;1.23;;;;;;;;;;5010750;28;20588;-71
2023/08/01 11:59:09;;;;;;;3.85;1.63;;;;;;;;;;5002939;28;20121;-68
2023/08/01 12:01:45;;;;;;;4.10;1.60;;;;;;;;;;5007863;28;20038;-71
2023/08/01 12:04:11;;;;;;;2.55;1.58;;;;;;;;;;5001553;28;20046;-69
2023/08/01 12:06:38;;;;;;;7.57;1.88;;;;;;;;;;5002640;28;20446;-71
2023/08/01 12:09:12;;;;;;;2.42;1.55;;;;;;;;;;5006598;28;20490;-71
2023/08/01 12:11:40;;;;;;;3.33;1.75;;;;;;;;;;5004823;28;20102;-69
2023/08/01 12:14:09;;;;;;;2.25;1.40;;;;;;;;;;5012371;28;20080;-69
2023/08/01 12:16:36;;;;;;;2.13;1.50;;;;;;;;;;5016740;28;20479;-70
2023/08/01 12:19:02;;;;;;;1.98;1.60;;;;;;;;;;5007606;28;20148;-69
2023/08/01 12:21:28;;;;;;;2.75;1.90;;;;;;;;;;5005582;28;20136;-69
2023/08/01 12:23:54;;;;;;;1.90;1.63;;;;;;;;;;5007623;28;20064;-70
2023/08/01 12:26:19;;;;;;;2.03;1.75;;;;;;;;;;5002440;28;20045;-70
2023/08/01 12:28:44;;;;;;;3.10;1.95;;;;;;;;;;5000546;28;20511;-69
2023/08/01 12:31:10;;;;;;;4.15;1.63;;;;;;;;;;5002273;28;20542;-69
2023/08/01 12:33:35;;;;;;;2.83;1.75;;;;;;;;;;5004248;28;20053;-72
2023/08/01 12:36:03;;;;;;;2.45;1.83;;;;;;;;;;5006357;28;20148;-71
2023/08/01 12:38:28;;;;;;;3.58;2.00;;;;;;;;;;5004815;28;20037;-70
2023/08/01 12:40:54;;;;;;;1.63;1.52;;;;;;;;;;5007832;28;20112;-70
2023/08/01 12:43:19;;;;;;;1.70;1.60;;;;;;;;;;5009963;28;20061;-69
2023/08/01 12:45:46;;;;;;;2.78;1.92;;;;;;;;;;4997494;28;20892;-69
2023/08/01 12:48:12;;;;;;;3.17;1.85;;;;;;;;;;4999541;28;20099;-72
2023/08/01 12:50:37;;;;;;;2.47;1.80;;;;;;;;;;5002778;28;20041;-70
2023/08/01 12:53:03;;;;;;;2.70;1.60;;;;;;;;;;4999466;28;20037;-72
2023/08/01 12:55:28;;;;;;;2.78;1.50;;;;;;;;;;4999356;28;20723;-69
2023/08/01 12:57:54;;;;;;;3.15;1.73;;;;;;;;;;4999903;28;20050;-70
2023/08/01 13:00:19;;;;;;;2.63;1.50;;;;;;;;;;5000915;28;20045;-70
2023/08/01 13:02:45;;;;;;;1.58;1.38;;;;;;;;;;5000319;28;20046;-69
2023/08/01 13:05:10;;;;;;;1.80;1.30;;;;;;;;;;4998761;28;20034;-71
2023/08/01 13:07:36;;;;;;;1.15;1.05;;;;;;;;;;4997640;28;20455;-69
2023/08/01 13:10:02;;;;;;;2.25;1.40;;;;;;;;;;4999646;28;20099;-72
2023/08/01 13:12:28;;;;;;;1.38;1.10;;;;;;;;;;4999930;28;20139;-71
2023/08/01 13:14:54;;;;;;;1.70;1.30;;;;;;;;;;5000650;28;20054;-69
2023/08/01 13:17:19;;;;;;;1.15;1.05;;;;;;;;;;4998832;28;20061;-70
2023/08/01 13:19:44;;;;;;;2.13;1.17;;;;;;;;;;5001452;28;20041;-70
2023/08/01 13:22:10;;;;;;;1.60;1.17;;;;;;;;;;5002165;28;20050;-72
2023/08/01 13:24:35;;;;;;;1.83;1.20;;;;;;;;;;5000087;28;20185;-72
2023/08/01 13:27:01;;;;;;;1.08;1.00;;;;;;;;;;5002500;28;20049;-72
2023/08/01 13:29:26;;;;;;;1.25;1.10;;;;;;;;;;5006748;28;20107;-71
2023/08/01 13:31:52;;;;;;;1.70;1.10;;;;;;;;;;5003951;28;20843;-71
2023/08/01 13:34:17;;;;;;;1.73;1.20;;;;;;;;;;4999021;28;20054;-72
2023/08/01 13:36:43;;;;;;;1.33;1.23;;;;;;;;;;5000474;28;20107;-71
2023/08/01 13:39:09;;;;;;;3.05;1.10;;;;;;;;;;4998453;28;20060;-70
2023/08/01 13:41:35;;;;;;;1.85;1.15;;;;;;;;;;4999154;28;20050;-70
2023/08/01 13:44:00;;;;;;;1.13;1.02;;;;;;;;;;4999456;28;20052;-72
2023/08/01 13:46:25;;;;;;;1.77;1.10;;;;;;;;;;4999686;28;20886;-71
2023/08/01 13:48:51;;;;;;;1.40;1.05;;;;;;;;;;4999416;28;20046;-71
2023/08/01 13:51:17;;;;;;;1.13;1.02;;;;;;;;;;5020067;28;20110;-72
2023/08/01 13:53:42;;;;;;;1.85;0.98;;;;;;;;;;4999114;28;20045;-71
2023/08/01 13:56:11;;;;;;;1.25;1.00;;;;;;;;;;4998821;28;20132;-72
2023/08/01 13:58:40;;;;;;;1.25;1.02;;;;;;;;;;5000049;28;20593;-71
2023/08/01 14:01:08;;;;;;;1.50;0.90;;;;;;;;;;4999273;28;20045;-71
2023/08/01 14:03:34;;;;;;;1.98;0.90;;;;;;;;;;5013858;28;20096;-73
2023/08/01 14:06:06;;;;;;;0.90;0.90;;;;;;;;;;5007442;28;20068;-72
2023/08/01 14:08:32;;;;;;;2.60;1.30;;;;;;;;;;5007700;28;20080;-72
2023/08/01 14:10:57;;;;;;;0.93;0.90;;;;;;;;;;5000713;28;20046;-72
2023/08/01 14:13:22;;;;;;;3.33;1.20;;;;;;;;;;5006065;28;20053;-72
2023/08/01 14:15:48;;;;;;;1.33;1.23;;;;;;;;;;5000528;28;20072;-72
2023/08/01 14:18:13;;;;;;;1.92;1.13;;;;;;;;;;4999211;28;20053;-72
2023/08/01 14:20:39;;;;;;;2.55;1.48;;;;;;;;;;5004811;28;20046;-72
2023/08/01 14:23:04;;;;;;;2.28;1.40;;;;;;;;;;5007058;28;20046;-69
2023/08/01 14:25:29;;;;;;;1.30;1.20;;;;;;;;;;4999513;28;20038;-70
2023/08/01 14:27:55;;;;;;;1.75;1.20;;;;;;;;;;5023532;28;20675;-69
2023/08/01 14:30:20;;;;;;;1.70;1.20;;;;;;;;;;5007719;28;20057;-71
2023/08/01 14:32:45;;;;;;;1.25;1.05;;;;;;;;;;4997267;28;20045;-71
2023/08/01 14:35:11;;;;;;;1.30;1.20;;;;;;;;;;5005494;28;20546;-70
2023/08/01 14:37:37;;;;;;;1.95;1.20;;;;;;;;;;5004624;28;20064;-70